sensor_id;sensor_type;location;lat;lon;timestamp;temperature;humidity
25753;DHT22;13600;50.816;4.416;2023-04-03T00:01:02;6.60;99.90
25753;DHT22;13600;50.816;4.416;2023-04-03T00:03:27;6.60;99.90
25753;DHT22;13600;50.816;4.416;2023-04-03T00:05:53;6.50;99.90
25753;DHT22;13600;50.816;4.416;2023-04-03T00:08:19;6.40;99.90
25753;DHT22;13600;50.816;4.416;2023-04-03T00:10:45;6.20;99.90
25753;DHT22;13600;50.816;4.416;2023-04-03T00:13:10;6.10;99.90
25753;DHT22;13600;50.816;4.416;2023-04-03T00:15:36;6.10;99.90
25753;DHT22;13600;50.816;4.416;2023-04-03T00:18:03;6.00;99.90
25753;DHT22;13600;50.816;4.416;2023-04-03T00:20:28;6.10;99.90
25753;DHT22;13600;50.816;4.416;2023-04-03T00:22:54;6.30;99.90
25753;DHT22;13600;50.816;4.416;2023-04-03T00:25:20;6.30;99.90
25753;DHT22;13600;50.816;4.416;2023-04-03T00:27:45;6.20;99.90
25753;DHT22;13600;50.816;4.416;2023-04-03T00:30:12;6.30;99.90
25753;DHT22;13600;50.816;4.416;2023-04-03T00:32:38;6.00;99.90
25753;DHT22;13600;50.816;4.416;2023-04-03T00:35:04;6.00;99.90
25753;DHT22;13600;50.816;4.416;2023-04-03T00:37:30;5.90;99.90
25753;DHT22;13600;50.816;4.416;2023-04-03T00:39:56;5.90;99.90
25753;DHT22;13600;50.816;4.416;2023-04-03T00:42:22;5.80;99.90
25753;DHT22;13600;50.816;4.416;2023-04-03T00:47:15;5.70;99.90
25753;DHT22;13600;50.816;4.416;2023-04-03T00:49:41;5.80;99.90
25753;DHT22;13600;50.816;4.416;2023-04-03T00:52:07;5.80;99.90
25753;DHT22;13600;50.816;4.416;2023-04-03T00:54:35;5.70;99.90
25753;DHT22;13600;50.816;4.416;2023-04-03T00:57:01;5.60;99.90
25753;DHT22;13600;50.816;4.416;2023-04-03T00:59:30;5.60;99.90
25753;DHT22;13600;50.816;4.416;2023-04-03T01:01:57;5.60;99.90
25753;DHT22;13600;50.816;4.416;2023-04-03T01:04:29;5.50;99.90
25753;DHT22;13600;50.816;4.416;2023-04-03T01:06:57;5.50;99.90
25753;DHT22;13600;50.816;4.416;2023-04-03T01:09:24;5.50;99.90
25753;DHT22;13600;50.816;4.416;2023-04-03T01:11:50;5.50;99.90
25753;DHT22;13600;50.816;4.416;2023-04-03T01:14:16;5.60;99.90
25753;DHT22;13600;50.816;4.416;2023-04-03T01:16:41;5.60;99.90
25753;DHT22;13600;50.816;4.416;2023-04-03T01:19:08;5.60;99.90
25753;DHT22;13600;50.816;4.416;2023-04-03T01:24:12;5.50;99.90
25753;DHT22;13600;50.816;4.416;2023-04-03T01:26:40;5.60;99.90
25753;DHT22;13600;50.816;4.416;2023-04-03T01:29:06;5.60;99.90
25753;DHT22;13600;50.816;4.416;2023-04-03T01:34:01;5.60;99.90
25753;DHT22;13600;50.816;4.416;2023-04-03T01:36:28;5.50;99.90
25753;DHT22;13600;50.816;4.416;2023-04-03T01:38:57;5.60;99.90
25753;DHT22;13600;50.816;4.416;2023-04-03T01:43:52;5.40;99.90
25753;DHT22;13600;50.816;4.416;2023-04-03T01:46:18;5.50;99.90
25753;DHT22;13600;50.816;4.416;2023-04-03T01:48:45;5.40;99.90
25753;DHT22;13600;50.816;4.416;2023-04-03T01:51:11;5.50;99.90
25753;DHT22;13600;50.816;4.416;2023-04-03T01:53:37;5.50;99.90
25753;DHT22;13600;50.816;4.416;2023-04-03T01:56:03;5.50;99.90
25753;DHT22;13600;50.816;4.416;2023-04-03T01:58:28;5.60;99.90
25753;DHT22;13600;50.816;4.416;2023-04-03T02:00:54;5.70;99.90
25753;DHT22;13600;50.816;4.416;2023-04-03T02:03:19;5.40;99.90
25753;DHT22;13600;50.816;4.416;2023-04-03T02:05:45;5.10;99.90
25753;DHT22;13600;50.816;4.416;2023-04-03T02:08:11;5.10;99.90
25753;DHT22;13600;50.816;4.416;2023-04-03T02:10:36;5.10;99.90
25753;DHT22;13600;50.816;4.416;2023-04-03T02:13:02;5.10;99.90
25753;DHT22;13600;50.816;4.416;2023-04-03T02:15:28;5.00;99.90
25753;DHT22;13600;50.816;4.416;2023-04-03T02:17:53;4.90;99.90
25753;DHT22;13600;50.816;4.416;2023-04-03T02:20:19;4.90;99.90
25753;DHT22;13600;50.816;4.416;2023-04-03T02:22:45;5.00;99.90
25753;DHT22;13600;50.816;4.416;2023-04-03T02:25:10;5.10;99.90
25753;DHT22;13600;50.816;4.416;2023-04-03T02:27:37;5.30;99.90
25753;DHT22;13600;50.816;4.416;2023-04-03T02:30:03;5.30;99.90
25753;DHT22;13600;50.816;4.416;2023-04-03T02:32:30;5.30;99.90
25753;DHT22;13600;50.816;4.416;2023-04-03T02:34:55;5.20;99.90
25753;DHT22;13600;50.816;4.416;2023-04-03T02:37:21;5.30;99.90
25753;DHT22;13600;50.816;4.416;2023-04-03T02:39:47;5.20;99.90
25753;DHT22;13600;50.816;4.416;2023-04-03T02:42:13;5.20;99.90
25753;DHT22;13600;50.816;4.416;2023-04-03T02:44:38;5.10;99.90
25753;DHT22;13600;50.816;4.416;2023-04-03T02:47:04;5.10;99.90
25753;DHT22;13600;50.816;4.416;2023-04-03T02:49:30;5.00;99.90
25753;DHT22;13600;50.816;4.416;2023-04-03T02:51:56;4.90;99.90
25753;DHT22;13600;50.816;4.416;2023-04-03T02:54:22;4.90;99.90
25753;DHT22;13600;50.816;4.416;2023-04-03T02:56:48;4.90;99.90
25753;DHT22;13600;50.816;4.416;2023-04-03T02:59:14;5.00;99.90
25753;DHT22;13600;50.816;4.416;2023-04-03T03:01:40;4.90;99.90
25753;DHT22;13600;50.816;4.416;2023-04-03T03:04:06;4.80;99.90
25753;DHT22;13600;50.816;4.416;2023-04-03T03:06:31;4.90;99.90
25753;DHT22;13600;50.816;4.416;2023-04-03T03:08:57;4.90;99.90
25753;DHT22;13600;50.816;4.416;2023-04-03T03:11:22;4.70;99.90
25753;DHT22;13600;50.816;4.416;2023-04-03T03:13:48;4.80;99.90
25753;DHT22;13600;50.816;4.416;2023-04-03T03:16:13;4.80;99.90
25753;DHT22;13600;50.816;4.416;2023-04-03T03:18:39;4.80;99.90
25753;DHT22;13600;50.816;4.416;2023-04-03T03:21:05;4.70;99.90
25753;DHT22;13600;50.816;4.416;2023-04-03T03:23:31;4.80;99.90
25753;DHT22;13600;50.816;4.416;2023-04-03T03:26:01;4.70;99.90
25753;DHT22;13600;50.816;4.416;2023-04-03T03:28:27;4.60;99.90
25753;DHT22;13600;50.816;4.416;2023-04-03T03:30:53;4.60;99.90
25753;DHT22;13600;50.816;4.416;2023-04-03T03:33:19;4.50;99.90
25753;DHT22;13600;50.816;4.416;2023-04-03T03:35:44;4.30;99.90
25753;DHT22;13600;50.816;4.416;2023-04-03T03:38:10;4.30;99.90
25753;DHT22;13600;50.816;4.416;2023-04-03T03:40:35;4.30;99.90
25753;DHT22;13600;50.816;4.416;2023-04-03T03:43:01;4.30;99.90
25753;DHT22;13600;50.816;4.416;2023-04-03T03:45:26;4.30;99.90
25753;DHT22;13600;50.816;4.416;2023-04-03T03:47:52;4.30;99.90
25753;DHT22;13600;50.816;4.416;2023-04-03T03:50:17;4.30;99.90
25753;DHT22;13600;50.816;4.416;2023-04-03T03:52:43;4.40;99.90
25753;DHT22;13600;50.816;4.416;2023-04-03T03:55:09;4.30;99.90
25753;DHT22;13600;50.816;4.416;2023-04-03T03:57:35;4.30;99.90
25753;DHT22;13600;50.816;4.416;2023-04-03T04:00:01;4.20;99.90
25753;DHT22;13600;50.816;4.416;2023-04-03T04:02:26;4.20;99.90
25753;DHT22;13600;50.816;4.416;2023-04-03T04:04:52;4.20;99.90
25753;DHT22;13600;50.816;4.416;2023-04-03T04:07:17;4.10;99.90
25753;DHT22;13600;50.816;4.416;2023-04-03T04:09:43;4.00;99.90
25753;DHT22;13600;50.816;4.416;2023-04-03T04:12:08;4.10;99.90
25753;DHT22;13600;50.816;4.416;2023-04-03T04:14:34;4.10;99.90
25753;DHT22;13600;50.816;4.416;2023-04-03T04:17:00;4.20;99.90
25753;DHT22;13600;50.816;4.416;2023-04-03T04:19:27;4.10;99.90
25753;DHT22;13600;50.816;4.416;2023-04-03T04:21:53;4.10;99.90
25753;DHT22;13600;50.816;4.416;2023-04-03T04:24:18;4.20;99.90
25753;DHT22;13600;50.816;4.416;2023-04-03T04:26:44;4.20;99.90
25753;DHT22;13600;50.816;4.416;2023-04-03T04:29:09;4.30;99.90
25753;DHT22;13600;50.816;4.416;2023-04-03T04:31:35;4.30;99.90
25753;DHT22;13600;50.816;4.416;2023-04-03T04:34:01;4.30;99.90
25753;DHT22;13600;50.816;4.416;2023-04-03T04:36:26;4.40;99.90
25753;DHT22;13600;50.816;4.416;2023-04-03T04:38:52;4.40;99.90
25753;DHT22;13600;50.816;4.416;2023-04-03T04:41:21;4.30;99.90
25753;DHT22;13600;50.816;4.416;2023-04-03T04:43:48;4.20;99.90
25753;DHT22;13600;50.816;4.416;2023-04-03T04:46:13;4.10;99.90
25753;DHT22;13600;50.816;4.416;2023-04-03T04:48:39;4.10;99.90
25753;DHT22;13600;50.816;4.416;2023-04-03T04:51:05;4.00;99.90
25753;DHT22;13600;50.816;4.416;2023-04-03T04:53:31;4.00;99.90
25753;DHT22;13600;50.816;4.416;2023-04-03T04:55:57;4.00;99.90
25753;DHT22;13600;50.816;4.416;2023-04-03T04:58:22;4.10;99.90
25753;DHT22;13600;50.816;4.416;2023-04-03T05:00:48;4.20;99.90
25753;DHT22;13600;50.816;4.416;2023-04-03T05:03:13;4.20;99.90
25753;DHT22;13600;50.816;4.416;2023-04-03T05:05:39;4.20;99.90
25753;DHT22;13600;50.816;4.416;2023-04-03T05:08:06;4.10;99.90
25753;DHT22;13600;50.816;4.416;2023-04-03T05:10:33;4.00;99.90
25753;DHT22;13600;50.816;4.416;2023-04-03T05:12:59;3.90;99.90
25753;DHT22;13600;50.816;4.416;2023-04-03T05:15:24;3.90;99.90
25753;DHT22;13600;50.816;4.416;2023-04-03T05:17:50;3.90;99.90
25753;DHT22;13600;50.816;4.416;2023-04-03T05:20:16;4.00;99.90
25753;DHT22;13600;50.816;4.416;2023-04-03T05:22:42;4.10;99.90
25753;DHT22;13600;50.816;4.416;2023-04-03T05:25:07;4.20;99.90
25753;DHT22;13600;50.816;4.416;2023-04-03T05:27:33;4.20;99.90
25753;DHT22;13600;50.816;4.416;2023-04-03T05:29:58;4.20;99.90
25753;DHT22;13600;50.816;4.416;2023-04-03T05:32:25;4.10;99.90
25753;DHT22;13600;50.816;4.416;2023-04-03T05:34:52;4.10;99.90
25753;DHT22;13600;50.816;4.416;2023-04-03T05:37:18;4.30;99.90
25753;DHT22;13600;50.816;4.416;2023-04-03T05:39:44;4.20;99.90
25753;DHT22;13600;50.816;4.416;2023-04-03T05:42:09;4.10;99.90
25753;DHT22;13600;50.816;4.416;2023-04-03T05:44:37;4.10;99.90
25753;DHT22;13600;50.816;4.416;2023-04-03T05:47:02;4.10;99.90
25753;DHT22;13600;50.816;4.416;2023-04-03T05:49:28;4.20;99.90
25753;DHT22;13600;50.816;4.416;2023-04-03T05:51:53;4.30;99.90
25753;DHT22;13600;50.816;4.416;2023-04-03T05:54:23;4.30;99.90
25753;DHT22;13600;50.816;4.416;2023-04-03T05:56:49;4.20;99.90
25753;DHT22;13600;50.816;4.416;2023-04-03T05:59:15;4.50;99.90
25753;DHT22;13600;50.816;4.416;2023-04-03T06:01:41;4.60;99.90
25753;DHT22;13600;50.816;4.416;2023-04-03T06:04:07;4.60;99.90
25753;DHT22;13600;50.816;4.416;2023-04-03T06:09:15;4.70;99.90
25753;DHT22;13600;50.816;4.416;2023-04-03T06:11:40;4.80;99.90
25753;DHT22;13600;50.816;4.416;2023-04-03T06:14:07;4.90;99.90
25753;DHT22;13600;50.816;4.416;2023-04-03T06:16:33;4.80;99.90
25753;DHT22;13600;50.816;4.416;2023-04-03T06:18:59;5.00;99.90
25753;DHT22;13600;50.816;4.416;2023-04-03T06:21:25;5.10;99.90
25753;DHT22;13600;50.816;4.416;2023-04-03T06:23:50;5.10;99.90
25753;DHT22;13600;50.816;4.416;2023-04-03T06:26:16;4.90;99.90
25753;DHT22;13600;50.816;4.416;2023-04-03T06:28:42;5.00;99.90
25753;DHT22;13600;50.816;4.416;2023-04-03T06:31:08;5.20;99.90
25753;DHT22;13600;50.816;4.416;2023-04-03T06:33:34;5.30;99.90
25753;DHT22;13600;50.816;4.416;2023-04-03T06:36:00;5.40;99.90
25753;DHT22;13600;50.816;4.416;2023-04-03T06:38:28;5.60;99.90
25753;DHT22;13600;50.816;4.416;2023-04-03T06:40:53;5.80;99.90
25753;DHT22;13600;50.816;4.416;2023-04-03T06:43:19;5.80;99.90
25753;DHT22;13600;50.816;4.416;2023-04-03T06:45:45;5.90;99.90
25753;DHT22;13600;50.816;4.416;2023-04-03T06:48:12;6.00;99.90
25753;DHT22;13600;50.816;4.416;2023-04-03T06:50:38;6.10;99.90
25753;DHT22;13600;50.816;4.416;2023-04-03T06:53:03;6.50;99.90
25753;DHT22;13600;50.816;4.416;2023-04-03T06:55:29;7.40;99.90
25753;DHT22;13600;50.816;4.416;2023-04-03T06:57:55;8.70;99.90
25753;DHT22;13600;50.816;4.416;2023-04-03T07:00:20;10.20;99.90
25753;DHT22;13600;50.816;4.416;2023-04-03T07:02:47;11.50;99.90
25753;DHT22;13600;50.816;4.416;2023-04-03T07:05:13;12.30;99.90
25753;DHT22;13600;50.816;4.416;2023-04-03T07:07:39;13.20;99.90
25753;DHT22;13600;50.816;4.416;2023-04-03T07:10:05;14.10;99.90
25753;DHT22;13600;50.816;4.416;2023-04-03T07:12:32;15.30;99.90
25753;DHT22;13600;50.816;4.416;2023-04-03T07:14:58;16.50;99.90
25753;DHT22;13600;50.816;4.416;2023-04-03T07:17:23;16.30;99.90
25753;DHT22;13600;50.816;4.416;2023-04-03T07:19:50;16.40;99.90
25753;DHT22;13600;50.816;4.416;2023-04-03T07:22:16;16.60;99.90
25753;DHT22;13600;50.816;4.416;2023-04-03T07:24:42;15.90;99.90
25753;DHT22;13600;50.816;4.416;2023-04-03T07:27:07;15.90;99.80
25753;DHT22;13600;50.816;4.416;2023-04-03T07:29:34;14.50;99.90
25753;DHT22;13600;50.816;4.416;2023-04-03T07:31:59;14.00;99.90
25753;DHT22;13600;50.816;4.416;2023-04-03T07:34:25;14.50;99.90
25753;DHT22;13600;50.816;4.416;2023-04-03T07:36:51;14.50;99.90
25753;DHT22;13600;50.816;4.416;2023-04-03T07:39:16;14.00;99.90
25753;DHT22;13600;50.816;4.416;2023-04-03T07:41:42;13.20;99.90
25753;DHT22;13600;50.816;4.416;2023-04-03T07:44:08;12.30;99.90
25753;DHT22;13600;50.816;4.416;2023-04-03T07:46:36;11.50;99.90
25753;DHT22;13600;50.816;4.416;2023-04-03T07:49:02;10.80;99.90
25753;DHT22;13600;50.816;4.416;2023-04-03T07:51:27;10.40;99.90
25753;DHT22;13600;50.816;4.416;2023-04-03T07:53:55;10.10;99.90
25753;DHT22;13600;50.816;4.416;2023-04-03T07:56:20;10.00;99.90
25753;DHT22;13600;50.816;4.416;2023-04-03T07:58:46;10.00;99.90
25753;DHT22;13600;50.816;4.416;2023-04-03T08:01:12;10.10;99.90
25753;DHT22;13600;50.816;4.416;2023-04-03T08:03:38;10.10;99.90
25753;DHT22;13600;50.816;4.416;2023-04-03T08:06:04;10.10;99.90
25753;DHT22;13600;50.816;4.416;2023-04-03T08:08:30;10.00;99.90
25753;DHT22;13600;50.816;4.416;2023-04-03T08:10:57;10.00;99.90
25753;DHT22;13600;50.816;4.416;2023-04-03T08:13:23;10.00;99.90
25753;DHT22;13600;50.816;4.416;2023-04-03T08:15:48;9.80;99.90
25753;DHT22;13600;50.816;4.416;2023-04-03T08:18:14;9.70;99.90
25753;DHT22;13600;50.816;4.416;2023-04-03T08:20:40;9.60;99.90
25753;DHT22;13600;50.816;4.416;2023-04-03T08:23:06;9.60;99.90
25753;DHT22;13600;50.816;4.416;2023-04-03T08:25:33;9.50;99.90
25753;DHT22;13600;50.816;4.416;2023-04-03T08:27:59;9.60;99.90
25753;DHT22;13600;50.816;4.416;2023-04-03T08:30:27;9.40;99.90
25753;DHT22;13600;50.816;4.416;2023-04-03T08:32:52;9.30;99.90
25753;DHT22;13600;50.816;4.416;2023-04-03T08:35:18;9.20;99.90
25753;DHT22;13600;50.816;4.416;2023-04-03T08:37:45;9.20;99.90
25753;DHT22;13600;50.816;4.416;2023-04-03T08:40:12;9.20;99.90
25753;DHT22;13600;50.816;4.416;2023-04-03T08:45:21;9.10;99.90
25753;DHT22;13600;50.816;4.416;2023-04-03T08:48:12;9.30;99.90
25753;DHT22;13600;50.816;4.416;2023-04-03T08:50:39;9.80;99.90
25753;DHT22;13600;50.816;4.416;2023-04-03T08:53:10;10.10;99.90
25753;DHT22;13600;50.816;4.416;2023-04-03T08:55:39;10.00;99.90
25753;DHT22;13600;50.816;4.416;2023-04-03T08:58:16;10.00;99.90
25753;DHT22;13600;50.816;4.416;2023-04-03T09:00:56;10.30;99.90
25753;DHT22;13600;50.816;4.416;2023-04-03T09:03:23;11.60;99.90
25753;DHT22;13600;50.816;4.416;2023-04-03T09:08:22;14.90;99.90
25753;DHT22;13600;50.816;4.416;2023-04-03T09:10:49;15.90;99.90
25753;DHT22;13600;50.816;4.416;2023-04-03T09:13:30;17.70;96.40
25753;DHT22;13600;50.816;4.416;2023-04-03T09:16:12;19.00;90.50
25753;DHT22;13600;50.816;4.416;2023-04-03T09:18:41;18.50;89.80
25753;DHT22;13600;50.816;4.416;2023-04-03T09:21:20;19.00;88.60
25753;DHT22;13600;50.816;4.416;2023-04-03T09:23:49;19.10;86.40
25753;DHT22;13600;50.816;4.416;2023-04-03T09:28:45;20.20;82.60
25753;DHT22;13600;50.816;4.416;2023-04-03T09:33:46;19.80;80.20
25753;DHT22;13600;50.816;4.416;2023-04-03T09:36:12;19.40;81.20
25753;DHT22;13600;50.816;4.416;2023-04-03T09:38:38;19.20;80.00
25753;DHT22;13600;50.816;4.416;2023-04-03T09:41:05;19.60;78.70
25753;DHT22;13600;50.816;4.416;2023-04-03T09:43:32;19.80;76.70
25753;DHT22;13600;50.816;4.416;2023-04-03T09:48:52;20.10;74.00
25753;DHT22;13600;50.816;4.416;2023-04-03T09:51:24;20.00;75.10
25753;DHT22;13600;50.816;4.416;2023-04-03T09:53:50;21.30;73.00
25753;DHT22;13600;50.816;4.416;2023-04-03T09:58:42;21.40;67.60
25753;DHT22;13600;50.816;4.416;2023-04-03T10:06:31;21.80;64.10
25753;DHT22;13600;50.816;4.416;2023-04-03T10:09:02;21.20;65.40
25753;DHT22;13600;50.816;4.416;2023-04-03T10:11:29;21.10;65.50
25753;DHT22;13600;50.816;4.416;2023-04-03T10:13:56;21.40;64.70
25753;DHT22;13600;50.816;4.416;2023-04-03T10:16:41;22.60;64.00
25753;DHT22;13600;50.816;4.416;2023-04-03T10:19:18;23.60;63.60
25753;DHT22;13600;50.816;4.416;2023-04-03T10:21:50;23.50;59.00
25753;DHT22;13600;50.816;4.416;2023-04-03T10:34:40;23.50;56.80
25753;DHT22;13600;50.816;4.416;2023-04-03T10:37:27;23.80;58.00
25753;DHT22;13600;50.816;4.416;2023-04-03T10:47:32;23.90;54.90
25753;DHT22;13600;50.816;4.416;2023-04-03T10:50:02;25.10;54.20
25753;DHT22;13600;50.816;4.416;2023-04-03T10:52:39;26.30;53.20
25753;DHT22;13600;50.816;4.416;2023-04-03T10:57:38;26.20;52.40
25753;DHT22;13600;50.816;4.416;2023-04-03T11:00:06;24.70;50.60
25753;DHT22;13600;50.816;4.416;2023-04-03T11:02:36;24.30;51.00
25753;DHT22;13600;50.816;4.416;2023-04-03T11:05:08;24.30;50.90
25753;DHT22;13600;50.816;4.416;2023-04-03T11:07:42;24.70;50.60
25753;DHT22;13600;50.816;4.416;2023-04-03T11:10:13;24.60;49.60
25753;DHT22;13600;50.816;4.416;2023-04-03T11:12:52;24.60;50.80
25753;DHT22;13600;50.816;4.416;2023-04-03T11:15:21;25.00;50.70
25753;DHT22;13600;50.816;4.416;2023-04-03T11:17:48;24.60;50.70
25753;DHT22;13600;50.816;4.416;2023-04-03T11:22:45;23.20;51.30
25753;DHT22;13600;50.816;4.416;2023-04-03T11:27:42;24.20;50.50
25753;DHT22;13600;50.816;4.416;2023-04-03T11:30:19;24.40;49.80
25753;DHT22;13600;50.816;4.416;2023-04-03T11:35:12;23.60;47.20
25753;DHT22;13600;50.816;4.416;2023-04-03T11:37:39;23.30;49.10
25753;DHT22;13600;50.816;4.416;2023-04-03T11:40:19;24.20;49.30
25753;DHT22;13600;50.816;4.416;2023-04-03T11:42:48;24.80;48.90
25753;DHT22;13600;50.816;4.416;2023-04-03T11:45:36;25.90;48.50
25753;DHT22;13600;50.816;4.416;2023-04-03T11:53:32;25.20;47.50
25753;DHT22;13600;50.816;4.416;2023-04-03T11:56:03;26.10;47.20
25753;DHT22;13600;50.816;4.416;2023-04-03T11:58:30;26.90;46.80
25753;DHT22;13600;50.816;4.416;2023-04-03T12:00:57;27.20;45.60
25753;DHT22;13600;50.816;4.416;2023-04-03T12:13:38;25.20;45.00
25753;DHT22;13600;50.816;4.416;2023-04-03T12:16:05;24.80;45.20
25753;DHT22;13600;50.816;4.416;2023-04-03T12:18:41;25.00;45.90
25753;DHT22;13600;50.816;4.416;2023-04-03T12:21:09;25.30;43.70
25753;DHT22;13600;50.816;4.416;2023-04-03T12:23:35;24.80;43.20
25753;DHT22;13600;50.816;4.416;2023-04-03T12:26:44;24.30;43.30
25753;DHT22;13600;50.816;4.416;2023-04-03T12:28:51;24.00;44.90
25753;DHT22;13600;50.816;4.416;2023-04-03T12:31:18;24.90;42.50
25753;DHT22;13600;50.816;4.416;2023-04-03T12:36:23;24.30;43.60
25753;DHT22;13600;50.816;4.416;2023-04-03T12:44:05;25.00;42.40
25753;DHT22;13600;50.816;4.416;2023-04-03T12:47:08;25.30;42.70
25753;DHT22;13600;50.816;4.416;2023-04-03T12:51:54;25.20;40.40
25753;DHT22;13600;50.816;4.416;2023-04-03T12:54:33;25.50;41.00
25753;DHT22;13600;50.816;4.416;2023-04-03T12:57:10;25.50;41.20
25753;DHT22;13600;50.816;4.416;2023-04-03T12:59:36;25.80;40.60
25753;DHT22;13600;50.816;4.416;2023-04-03T13:02:02;25.60;40.60
25753;DHT22;13600;50.816;4.416;2023-04-03T13:04:28;25.30;39.40
25753;DHT22;13600;50.816;4.416;2023-04-03T13:06:54;26.00;40.00
25753;DHT22;13600;50.816;4.416;2023-04-03T13:09:21;26.40;40.40
25753;DHT22;13600;50.816;4.416;2023-04-03T13:11:48;26.20;39.50
25753;DHT22;13600;50.816;4.416;2023-04-03T13:14:15;26.70;39.50
25753;DHT22;13600;50.816;4.416;2023-04-03T13:16:41;27.30;38.20
25753;DHT22;13600;50.816;4.416;2023-04-03T13:19:14;27.20;36.00
25753;DHT22;13600;50.816;4.416;2023-04-03T13:21:41;26.20;38.10
25753;DHT22;13600;50.816;4.416;2023-04-03T13:24:08;25.50;38.00
25753;DHT22;13600;50.816;4.416;2023-04-03T13:26:34;25.80;38.10
25753;DHT22;13600;50.816;4.416;2023-04-03T13:29:02;25.60;38.80
25753;DHT22;13600;50.816;4.416;2023-04-03T13:31:29;25.60;38.40
25753;DHT22;13600;50.816;4.416;2023-04-03T13:33:57;25.70;38.60
25753;DHT22;13600;50.816;4.416;2023-04-03T13:36:30;25.80;37.80
25753;DHT22;13600;50.816;4.416;2023-04-03T13:41:53;24.50;38.00
25753;DHT22;13600;50.816;4.416;2023-04-03T13:46:48;24.80;39.00
25753;DHT22;13600;50.816;4.416;2023-04-03T13:49:35;25.00;39.20
25753;DHT22;13600;50.816;4.416;2023-04-03T13:52:48;25.10;38.20
25753;DHT22;13600;50.816;4.416;2023-04-03T13:54:51;24.60;38.40
25753;DHT22;13600;50.816;4.416;2023-04-03T13:57:18;24.40;39.70
25753;DHT22;13600;50.816;4.416;2023-04-03T13:59:43;24.90;39.20
25753;DHT22;13600;50.816;4.416;2023-04-03T14:04:45;24.30;39.60
25753;DHT22;13600;50.816;4.416;2023-04-03T14:07:11;23.60;40.20
25753;DHT22;13600;50.816;4.416;2023-04-03T14:09:37;24.00;40.70
25753;DHT22;13600;50.816;4.416;2023-04-03T14:12:07;23.90;39.80
25753;DHT22;13600;50.816;4.416;2023-04-03T14:14:34;23.60;41.10
25753;DHT22;13600;50.816;4.416;2023-04-03T14:17:02;23.80;41.50
25753;DHT22;13600;50.816;4.416;2023-04-03T14:19:30;23.90;41.70
25753;DHT22;13600;50.816;4.416;2023-04-03T14:21:56;23.80;42.20
25753;DHT22;13600;50.816;4.416;2023-04-03T14:24:22;23.70;41.70
25753;DHT22;13600;50.816;4.416;2023-04-03T14:26:48;23.70;40.80
25753;DHT22;13600;50.816;4.416;2023-04-03T14:29:14;23.80;40.80
25753;DHT22;13600;50.816;4.416;2023-04-03T14:31:41;22.90;40.40
25753;DHT22;13600;50.816;4.416;2023-04-03T14:34:06;23.20;41.80
25753;DHT22;13600;50.816;4.416;2023-04-03T14:36:32;24.00;40.80
25753;DHT22;13600;50.816;4.416;2023-04-03T14:38:58;24.00;39.90
25753;DHT22;13600;50.816;4.416;2023-04-03T14:41:25;23.80;40.30
25753;DHT22;13600;50.816;4.416;2023-04-03T14:43:51;23.10;39.40
25753;DHT22;13600;50.816;4.416;2023-04-03T14:46:18;24.10;40.70
25753;DHT22;13600;50.816;4.416;2023-04-03T14:48:44;24.10;39.80
25753;DHT22;13600;50.816;4.416;2023-04-03T14:51:11;24.10;39.70
25753;DHT22;13600;50.816;4.416;2023-04-03T14:53:37;23.40;39.60
25753;DHT22;13600;50.816;4.416;2023-04-03T14:56:04;23.50;39.50
25753;DHT22;13600;50.816;4.416;2023-04-03T14:58:30;23.50;40.30
25753;DHT22;13600;50.816;4.416;2023-04-03T15:00:57;23.20;38.90
25753;DHT22;13600;50.816;4.416;2023-04-03T15:03:23;23.10;39.60
25753;DHT22;13600;50.816;4.416;2023-04-03T15:05:49;23.10;39.60
25753;DHT22;13600;50.816;4.416;2023-04-03T15:08:19;23.00;39.20
25753;DHT22;13600;50.816;4.416;2023-04-03T15:10:45;22.80;40.00
25753;DHT22;13600;50.816;4.416;2023-04-03T15:13:11;22.80;40.30
25753;DHT22;13600;50.816;4.416;2023-04-03T15:15:37;22.80;41.10
25753;DHT22;13600;50.816;4.416;2023-04-03T15:18:03;22.70;41.10
25753;DHT22;13600;50.816;4.416;2023-04-03T15:20:28;22.60;40.50
25753;DHT22;13600;50.816;4.416;2023-04-03T15:22:56;22.10;41.10
25753;DHT22;13600;50.816;4.416;2023-04-03T15:25:22;22.30;41.60
25753;DHT22;13600;50.816;4.416;2023-04-03T15:27:48;21.80;42.10
25753;DHT22;13600;50.816;4.416;2023-04-03T15:30:14;21.70;42.40
25753;DHT22;13600;50.816;4.416;2023-04-03T15:32:40;20.90;42.90
25753;DHT22;13600;50.816;4.416;2023-04-03T15:35:06;20.70;44.10
25753;DHT22;13600;50.816;4.416;2023-04-03T15:37:31;20.90;43.00
25753;DHT22;13600;50.816;4.416;2023-04-03T15:39:57;21.00;43.40
25753;DHT22;13600;50.816;4.416;2023-04-03T15:42:23;20.80;43.60
25753;DHT22;13600;50.816;4.416;2023-04-03T15:44:48;20.70;44.70
25753;DHT22;13600;50.816;4.416;2023-04-03T15:47:14;20.80;44.10
25753;DHT22;13600;50.816;4.416;2023-04-03T15:49:39;20.40;44.20
25753;DHT22;13600;50.816;4.416;2023-04-03T15:52:05;20.30;45.50
25753;DHT22;13600;50.816;4.416;2023-04-03T15:54:31;20.20;44.80
25753;DHT22;13600;50.816;4.416;2023-04-03T15:56:57;20.40;45.70
25753;DHT22;13600;50.816;4.416;2023-04-03T15:59:22;20.70;44.60
25753;DHT22;13600;50.816;4.416;2023-04-03T16:01:48;20.70;44.50
25753;DHT22;13600;50.816;4.416;2023-04-03T16:04:15;20.20;45.40
25753;DHT22;13600;50.816;4.416;2023-04-03T16:06:41;20.00;45.80
25753;DHT22;13600;50.816;4.416;2023-04-03T16:09:07;19.90;46.70
25753;DHT22;13600;50.816;4.416;2023-04-03T16:11:33;18.50;47.70
25753;DHT22;13600;50.816;4.416;2023-04-03T16:14:00;18.60;48.50
25753;DHT22;13600;50.816;4.416;2023-04-03T16:16:26;18.40;48.60
25753;DHT22;13600;50.816;4.416;2023-04-03T16:18:53;17.90;48.90
25753;DHT22;13600;50.816;4.416;2023-04-03T16:21:19;17.30;49.40
25753;DHT22;13600;50.816;4.416;2023-04-03T16:23:45;17.20;50.90
25753;DHT22;13600;50.816;4.416;2023-04-03T16:26:11;17.40;50.50
25753;DHT22;13600;50.816;4.416;2023-04-03T16:28:37;17.10;51.20
25753;DHT22;13600;50.816;4.416;2023-04-03T16:31:03;16.30;51.70
25753;DHT22;13600;50.816;4.416;2023-04-03T16:33:29;16.00;52.80
25753;DHT22;13600;50.816;4.416;2023-04-03T16:35:54;16.20;53.00
25753;DHT22;13600;50.816;4.416;2023-04-03T16:38:20;15.40;54.00
25753;DHT22;13600;50.816;4.416;2023-04-03T16:40:47;15.50;55.10
25753;DHT22;13600;50.816;4.416;2023-04-03T16:43:14;15.40;54.40
25753;DHT22;13600;50.816;4.416;2023-04-03T16:45:40;15.00;55.30
25753;DHT22;13600;50.816;4.416;2023-04-03T16:48:05;15.10;55.80
25753;DHT22;13600;50.816;4.416;2023-04-03T16:50:31;14.80;56.50
25753;DHT22;13600;50.816;4.416;2023-04-03T16:52:56;14.80;56.20
25753;DHT22;13600;50.816;4.416;2023-04-03T16:55:22;14.70;56.10
25753;DHT22;13600;50.816;4.416;2023-04-03T16:57:48;14.80;57.00
25753;DHT22;13600;50.816;4.416;2023-04-03T17:00:13;14.70;57.00
25753;DHT22;13600;50.816;4.416;2023-04-03T17:02:40;14.60;57.00
25753;DHT22;13600;50.816;4.416;2023-04-03T17:05:05;14.60;57.20
25753;DHT22;13600;50.816;4.416;2023-04-03T17:07:31;14.50;57.40
25753;DHT22;13600;50.816;4.416;2023-04-03T17:09:57;14.10;57.60
25753;DHT22;13600;50.816;4.416;2023-04-03T17:12:24;14.20;57.90